Time;durP1;ratioP1;P1;durP2;ratioP2;P2;SDS_P1;SDS_P2;PMS_P1;PMS_P2;Temp;Humidity;BMP_temperature;BMP_pressure;BME280_temperature;BME280_humidity;BME280_pressure;Samples;Min_cycle;Max_cycle;Signal;HPM_P1;HPM_P2
2021/04/08 00:00:46;;;;;;;7.28;3.67;;;2.30;99.90;;;;;;4918580;29;20467;-83
2021/04/08 00:03:14;;;;;;;5.47;3.33;;;2.30;99.90;;;;;;4944263;29;20195;-82
2021/04/08 00:05:42;;;;;;;6.65;3.30;;;2.30;99.90;;;;;;4935500;29;20275;-83
2021/04/08 00:08:10;;;;;;;8.02;3.70;;;2.30;99.90;;;;;;4936057;29;20180;-82
2021/04/08 00:10:42;;;;;;;9.60;3.10;;;2.10;99.90;;;;;;4935711;29;20220;-82
2021/04/08 00:13:10;;;;;;;10.20;4.40;;;2.20;99.90;;;;;;4950218;29;20432;-82
2021/04/08 00:15:43;;;;;;;14.98;3.40;;;2.20;99.90;;;;;;4945846;29;20238;-82
2021/04/08 00:18:14;;;;;;;8.18;2.67;;;2.10;99.90;;;;;;4935903;29;20517;-82
2021/04/08 00:20:43;;;;;;;6.43;3.50;;;1.80;99.90;;;;;;4935958;29;20207;-83
2021/04/08 00:23:12;;;;;;;8.80;3.30;;;2.10;99.90;;;;;;4919168;29;20299;-82
2021/04/08 00:25:43;;;;;;;8.35;3.38;;;1.80;99.90;;;;;;4935050;29;20654;-81
2021/04/08 00:28:09;;;;;;;5.47;2.55;;;1.90;99.90;;;;;;4936853;29;20180;-82
2021/04/08 00:30:43;;;;;;;10.13;3.25;;;2.40;99.90;;;;;;4930638;29;20192;-82
2021/04/08 00:33:14;;;;;;;7.38;3.25;;;2.20;99.90;;;;;;4922919;29;20180;-82
2021/04/08 00:35:43;;;;;;;10.18;2.80;;;2.00;99.90;;;;;;4922688;29;20195;-82
2021/04/08 00:38:09;;;;;;;5.93;2.67;;;2.00;99.90;;;;;;4943303;29;20188;-81
2021/04/08 00:40:38;;;;;;;7.47;3.03;;;2.20;99.90;;;;;;4922893;29;20176;-81
2021/04/08 00:43:07;;;;;;;6.50;2.95;;;2.00;99.90;;;;;;4922290;29;20227;-82
2021/04/08 00:45:36;;;;;;;5.85;2.80;;;2.00;99.90;;;;;;4939218;29;20270;-83
2021/04/08 00:48:07;;;;;;;7.35;3.05;;;2.10;99.90;;;;;;4939013;29;20638;-82
2021/04/08 00:50:35;;;;;;;8.07;2.45;;;1.70;99.90;;;;;;4937860;29;20178;-82
2021/04/08 00:53:07;;;;;;;11.35;3.28;;;2.10;99.90;;;;;;4922443;29;20507;-83
2021/04/08 00:55:55;;;;;;;7.05;3.40;;;2.00;99.90;;;;;;4921957;29;20231;-82
2021/04/08 00:58:26;;;;;;;6.38;3.75;;;1.50;99.90;;;;;;4922089;29;20207;-83
2021/04/08 01:00:55;;;;;;;7.97;4.00;;;1.50;99.90;;;;;;4921758;29;20251;-82
2021/04/08 01:03:24;;;;;;;10.88;3.72;;;2.00;99.90;;;;;;4921821;29;20196;-82
2021/04/08 01:05:52;;;;;;;8.68;3.00;;;2.10;99.90;;;;;;4922037;29;20546;-82
2021/04/08 01:08:19;;;;;;;8.48;3.13;;;2.00;99.90;;;;;;4918854;29;20201;-82
2021/04/08 01:10:50;;;;;;;8.18;3.10;;;1.90;99.90;;;;;;4913093;29;20225;-82
2021/04/08 01:13:23;;;;;;;11.20;3.33;;;2.10;99.90;;;;;;4921811;29;20176;-82
2021/04/08 01:15:54;;;;;;;8.32;3.53;;;1.90;99.90;;;;;;4906384;29;20202;-83
2021/04/08 01:18:42;;;;;;;11.65;3.78;;;1.50;99.90;;;;;;4922299;29;20175;-82
2021/04/08 01:21:22;;;;;;;5.80;3.55;;;2.00;99.90;;;;;;4929919;29;20187;-82
2021/04/08 01:24:13;;;;;;;8.45;3.60;;;1.80;99.90;;;;;;4940885;29;20243;-82
2021/04/08 01:26:52;;;;;;;7.50;3.58;;;1.40;99.90;;;;;;4943679;29;20615;-82
2021/04/08 01:30:00;;;;;;;9.40;3.90;;;1.90;99.90;;;;;;4926671;29;20190;-82
2021/04/08 01:32:30;;;;;;;6.07;3.20;;;2.00;99.90;;;;;;4938055;29;20216;-82
2021/04/08 01:35:03;;;;;;;6.25;3.60;;;1.90;99.90;;;;;;4925351;29;20680;-82
2021/04/08 01:37:35;;;;;;;4.32;3.28;;;1.70;99.90;;;;;;4957042;29;20222;-81
2021/04/08 01:40:03;;;;;;;8.52;3.65;;;1.80;99.90;;;;;;4923012;29;20565;-81
2021/04/08 01:42:33;;;;;;;7.53;3.38;;;1.90;99.90;;;;;;4937764;29;20233;-82
2021/04/08 01:45:18;;;;;;;9.15;3.70;;;2.00;99.90;;;;;;4954035;29;20202;-81
2021/04/08 01:47:45;;;;;;;5.30;3.50;;;1.70;99.90;;;;;;4943049;29;20188;-81
2021/04/08 01:50:16;;;;;;;6.47;3.88;;;1.40;99.90;;;;;;4929476;29;20312;-82
2021/04/08 01:52:47;;;;;;;6.10;3.55;;;1.80;99.90;;;;;;4956950;29;20219;-82
2021/04/08 01:55:32;;;;;;;8.15;4.05;;;1.30;99.90;;;;;;4945128;29;20241;-82
2021/04/08 01:58:01;;;;;;;8.18;4.47;;;1.70;99.90;;;;;;4905269;29;20202;-82
2021/04/08 02:00:33;;;;;;;5.80;3.47;;;1.80;99.90;;;;;;4940668;29;20221;-81
2021/04/08 02:03:03;;;;;;;8.25;4.22;;;1.60;99.90;;;;;;4936464;29;20180;-81
2021/04/08 02:05:34;;;;;;;6.47;4.25;;;1.80;99.90;;;;;;4921572;29;20241;-80
2021/04/08 02:08:07;;;;;;;6.28;4.15;;;1.70;99.90;;;;;;4937462;29;20212;-81
2021/04/08 02:10:39;;;;;;;5.47;3.75;;;1.60;99.90;;;;;;4933532;29;20179;-82
2021/04/08 02:13:09;;;;;;;8.48;3.60;;;1.40;99.90;;;;;;4930011;29;20231;-82
2021/04/08 02:15:37;;;;;;;9.50;4.18;;;1.50;99.90;;;;;;4929844;29;20191;-82
2021/04/08 02:18:07;;;;;;;9.45;4.68;;;1.40;99.90;;;;;;4937482;29;20253;-82
2021/04/08 02:20:40;;;;;;;6.97;3.90;;;1.40;99.90;;;;;;4920833;29;20254;-81
2021/04/08 02:23:12;;;;;;;7.10;4.70;;;1.00;99.90;;;;;;4921246;29;20323;-81
2021/04/08 02:25:38;;;;;;;11.07;3.40;;;1.50;99.90;;;;;;4937146;29;20196;-81
2021/04/08 02:28:12;;;;;;;7.53;4.30;;;1.50;99.90;;;;;;4920740;29;20216;-81
2021/04/08 02:30:47;;;;;;;6.35;3.63;;;1.00;99.90;;;;;;4948734;29;20212;-81
2021/04/08 02:33:23;;;;;;;8.13;3.90;;;1.10;99.90;;;;;;4939993;29;20189;-82
2021/04/08 02:35:53;;;;;;;11.45;5.25;;;1.60;99.90;;;;;;4930267;29;20217;-82
2021/04/08 02:38:30;;;;;;;10.77;4.35;;;1.50;99.90;;;;;;4954625;29;20220;-82
2021/04/08 02:41:05;;;;;;;5.93;4.00;;;1.10;99.90;;;;;;4925472;29;20688;-82
2021/04/08 02:43:32;;;;;;;7.00;3.55;;;1.10;99.90;;;;;;4920131;29;20353;-82
2021/04/08 02:46:00;;;;;;;10.15;4.95;;;1.00;99.90;;;;;;4936748;29;20517;-82
2021/04/08 02:48:32;;;;;;;9.52;3.80;;;1.40;99.90;;;;;;4927472;29;20521;-82
2021/04/08 02:51:09;;;;;;;6.15;3.42;;;1.50;99.90;;;;;;4949921;29;20223;-82
2021/04/08 02:53:52;;;;;;;9.23;3.70;;;1.50;99.90;;;;;;4912885;29;20274;-81
2021/04/08 02:56:40;;;;;;;11.63;3.83;;;1.10;99.90;;;;;;4936734;29;20206;-81
2021/04/08 02:59:23;;;;;;;5.95;4.07;;;1.40;99.90;;;;;;4920487;29;20250;-81
2021/04/08 03:02:21;;;;;;;9.25;3.75;;;1.30;99.90;;;;;;4936384;29;20187;-81
2021/04/08 03:04:57;;;;;;;9.95;3.95;;;1.70;99.90;;;;;;4936218;29;20222;-82
2021/04/08 03:07:30;;;;;;;8.23;3.20;;;1.40;99.90;;;;;;4933283;29;20193;-81
2021/04/08 03:10:01;;;;;;;6.63;2.85;;;1.40;99.90;;;;;;4951276;29;20191;-81
2021/04/08 03:12:32;;;;;;;4.80;3.67;;;1.30;99.90;;;;;;4919723;29;20672;-82
2021/04/08 03:15:06;;;;;;;7.15;4.20;;;1.10;99.90;;;;;;4927808;29;20525;-81
2021/04/08 03:17:37;;;;;;;13.95;3.90;;;1.40;99.90;;;;;;4936952;29;20185;-81
2021/04/08 03:20:13;;;;;;;9.45;3.80;;;0.90;99.90;;;;;;4917937;29;20188;-82
2021/04/08 03:22:46;;;;;;;8.70;3.65;;;1.50;99.90;;;;;;4896663;29;20244;-82
2021/04/08 03:25:22;;;;;;;14.43;3.40;;;1.40;99.90;;;;;;4945477;29;20184;-82
2021/04/08 03:27:49;;;;;;;6.65;2.88;;;1.60;99.90;;;;;;4944882;29;20198;-81
2021/04/08 03:30:19;;;;;;;7.65;3.60;;;1.00;99.90;;;;;;4939367;29;20272;-82
2021/04/08 03:32:50;;;;;;;7.50;3.20;;;1.70;99.90;;;;;;4909693;29;20200;-82
2021/04/08 03:35:17;;;;;;;5.50;2.83;;;1.50;99.90;;;;;;4936186;29;20554;-82
2021/04/08 03:37:45;;;;;;;5.70;2.45;;;1.40;99.90;;;;;;4935692;29;20667;-82
2021/04/08 03:40:19;;;;;;;7.22;3.40;;;1.00;99.90;;;;;;4936294;29;20165;-82
2021/04/08 03:42:54;;;;;;;8.00;3.15;;;1.30;99.90;;;;;;4920606;29;20178;-82
2021/04/08 03:45:23;;;;;;;6.85;3.38;;;1.40;99.90;;;;;;4919792;29;20192;-82
2021/04/08 03:48:00;;;;;;;6.28;3.95;;;1.40;99.90;;;;;;4920874;29;20272;-82
2021/04/08 03:50:33;;;;;;;5.85;2.45;;;1.30;99.90;;;;;;4954740;29;20179;-82
2021/04/08 03:53:02;;;;;;;4.18;2.88;;;1.50;99.90;;;;;;4926522;29;20657;-82
2021/04/08 03:55:37;;;;;;;7.72;3.40;;;1.30;99.90;;;;;;4954895;29;20255;-82
2021/04/08 03:58:06;;;;;;;9.30;3.97;;;1.20;99.90;;;;;;4955288;29;20178;-82
2021/04/08 04:00:35;;;;;;;7.97;2.90;;;1.40;99.90;;;;;;4938046;29;20261;-82
2021/04/08 04:03:12;;;;;;;8.65;3.50;;;1.20;99.90;;;;;;4935804;29;20242;-82
2021/04/08 04:05:39;;;;;;;6.45;2.92;;;1.00;99.90;;;;;;4907944;29;20182;-82
2021/04/08 04:08:11;;;;;;;4.25;3.00;;;1.00;99.90;;;;;;4947525;29;20186;-82
2021/04/08 04:10:40;;;;;;;7.05;3.00;;;1.30;99.90;;;;;;4958452;29;20176;-82
2021/04/08 04:13:13;;;;;;;10.13;3.80;;;1.40;99.90;;;;;;4939809;29;20195;-82
2021/04/08 04:15:42;;;;;;;8.25;3.47;;;1.50;99.90;;;;;;4939383;29;20838;-82
2021/04/08 04:18:09;;;;;;;17.52;4.50;;;1.10;99.90;;;;;;4939513;29;20641;-83
2021/04/08 04:20:40;;;;;;;17.50;4.32;;;1.70;99.90;;;;;;4931738;29;20195;-82
2021/04/08 04:23:11;;;;;;;8.25;3.78;;;1.60;99.90;;;;;;4942301;29;20793;-82
2021/04/08 04:25:46;;;;;;;6.00;2.90;;;1.50;99.90;;;;;;4938225;29;20203;-83
2021/04/08 04:28:19;;;;;;;8.15;3.08;;;1.20;99.90;;;;;;4939664;29;20202;-82
2021/04/08 04:30:50;;;;;;;7.70;3.20;;;1.70;99.90;;;;;;4922453;29;20203;-82
2021/04/08 04:33:18;;;;;;;10.25;3.00;;;1.20;99.90;;;;;;4956029;29;20182;-83
2021/04/08 04:35:47;;;;;;;14.98;3.70;;;1.90;99.90;;;;;;4923373;29;20266;-82
2021/04/08 04:38:20;;;;;;;5.85;2.90;;;1.60;99.90;;;;;;4939242;29;20184;-82
2021/04/08 04:40:50;;;;;;;7.07;2.80;;;1.90;99.90;;;;;;4939150;29;20534;-82
2021/04/08 04:43:18;;;;;;;3.92;2.85;;;1.90;99.90;;;;;;4953057;29;20263;-82
2021/04/08 04:45:46;;;;;;;7.43;3.30;;;2.00;99.90;;;;;;4953427;29;20267;-82
2021/04/08 04:48:17;;;;;;;8.27;2.90;;;1.60;99.90;;;;;;4946879;29;20211;-82
2021/04/08 04:50:43;;;;;;;3.97;2.17;;;2.00;99.90;;;;;;4937266;29;20545;-83
2021/04/08 04:53:11;;;;;;;4.30;2.50;;;2.30;99.90;;;;;;4922606;29;20274;-82
2021/04/08 04:55:42;;;;;;;9.73;3.35;;;2.10;99.90;;;;;;4919009;29;20193;-82
2021/04/08 04:58:12;;;;;;;8.52;4.40;;;2.20;99.90;;;;;;4932910;29;20203;-82
2021/04/08 05:00:40;;;;;;;5.82;4.18;;;1.80;99.90;;;;;;4955899;29;20553;-82
2021/04/08 05:03:09;;;;;;;9.30;4.60;;;2.30;99.90;;;;;;4922679;29;20661;-82
2021/04/08 05:05:37;;;;;;;17.67;6.43;;;2.00;99.90;;;;;;4930780;29;20199;-82
2021/04/08 05:08:05;;;;;;;7.88;5.05;;;2.40;99.90;;;;;;4954386;29;20419;-82
2021/04/08 05:10:36;;;;;;;13.95;4.95;;;2.70;99.90;;;;;;4924748;29;20184;-81
2021/04/08 05:13:04;;;;;;;9.88;4.90;;;2.60;99.90;;;;;;4937951;29;20199;-82
2021/04/08 05:15:34;;;;;;;14.57;5.43;;;2.70;99.90;;;;;;4938182;29;20640;-81
2021/04/08 05:18:01;;;;;;;15.85;5.60;;;2.60;99.90;;;;;;4921144;29;20819;-81
2021/04/08 05:20:32;;;;;;;12.65;6.25;;;2.60;99.90;;;;;;4933015;29;20537;-82
2021/04/08 05:23:00;;;;;;;12.65;5.68;;;2.80;99.90;;;;;;4933288;29;20291;-84
2021/04/08 05:25:31;;;;;;;12.73;6.43;;;2.80;99.90;;;;;;4937082;29;20193;-83
2021/04/08 05:27:57;;;;;;;12.73;6.30;;;2.20;99.90;;;;;;4938167;29;20184;-82
2021/04/08 05:30:26;;;;;;;13.73;6.32;;;2.70;99.90;;;;;;4938712;29;20200;-83
2021/04/08 05:32:52;;;;;;;11.77;6.70;;;2.60;99.90;;;;;;4938341;29;20216;-83
2021/04/08 05:35:19;;;;;;;14.43;7.90;;;2.70;99.90;;;;;;4937341;29;20320;-83
2021/04/08 05:37:45;;;;;;;15.55;6.82;;;2.90;99.90;;;;;;4937985;29;20187;-82
2021/04/08 05:40:11;;;;;;;12.18;7.80;;;2.70;99.90;;;;;;4937904;29;20247;-83
2021/04/08 05:42:42;;;;;;;12.18;7.22;;;2.70;99.90;;;;;;4937422;29;20675;-83
2021/04/08 05:45:11;;;;;;;16.50;7.55;;;2.70;99.90;;;;;;4921872;29;20195;-83
2021/04/08 05:47:37;;;;;;;18.13;8.18;;;2.70;99.90;;;;;;4921398;29;20199;-83
2021/04/08 05:50:04;;;;;;;11.33;7.23;;;2.50;99.90;;;;;;4921126;29;20184;-83
2021/04/08 05:52:30;;;;;;;14.32;7.22;;;2.80;99.90;;;;;;4940128;29;20541;-83
2021/04/08 05:54:58;;;;;;;10.67;6.80;;;2.90;99.90;;;;;;4955872;29;20190;-82
2021/04/08 05:57:24;;;;;;;16.33;7.60;;;2.90;99.90;;;;;;4938155;29;20416;-83
2021/04/08 05:59:50;;;;;;;12.00;8.27;;;2.80;99.90;;;;;;4937924;29;20195;-83
2021/04/08 06:02:16;;;;;;;11.90;7.03;;;2.90;99.90;;;;;;4954809;29;20465;-84
2021/04/08 06:04:42;;;;;;;13.05;8.30;;;2.90;99.90;;;;;;4946136;29;20940;-83
2021/04/08 06:07:08;;;;;;;17.27;7.93;;;2.90;99.90;;;;;;4937848;29;20207;-83
2021/04/08 06:09:34;;;;;;;15.32;7.57;;;3.00;99.90;;;;;;4948885;29;20514;-83
2021/04/08 06:12:02;;;;;;;15.77;8.43;;;3.00;99.90;;;;;;4950453;29;20661;-83
2021/04/08 06:14:32;;;;;;;28.58;8.07;;;3.00;99.90;;;;;;4937332;29;20648;-83
2021/04/08 06:16:58;;;;;;;11.98;7.75;;;3.10;99.90;;;;;;4928328;29;20676;-83
2021/04/08 06:19:24;;;;;;;14.02;7.78;;;3.20;99.90;;;;;;4955225;29;20643;-83
2021/04/08 06:21:53;;;;;;;14.35;7.85;;;3.20;99.90;;;;;;4930504;29;20214;-83
2021/04/08 06:24:19;;;;;;;12.02;7.07;;;2.90;99.90;;;;;;4937360;29;20183;-83
2021/04/08 06:26:45;;;;;;;10.05;8.00;;;3.40;99.90;;;;;;4941595;29;20278;-83
2021/04/08 06:29:11;;;;;;;14.60;8.10;;;3.50;99.90;;;;;;4928619;29;20710;-82
2021/04/08 06:31:37;;;;;;;11.35;7.35;;;3.60;99.90;;;;;;4933056;29;20999;-89
2021/04/08 06:34:08;;;;;;;17.08;8.77;;;3.40;99.90;;;;;;4937833;29;20235;-88
2021/04/08 06:36:36;;;;;;;16.23;8.30;;;3.70;99.90;;;;;;4925213;29;20172;-89
2021/04/08 06:39:06;;;;;;;10.05;7.13;;;3.70;99.90;;;;;;4930186;29;20463;-85
2021/04/08 06:41:41;;;;;;;14.90;8.40;;;3.80;99.90;;;;;;4949294;29;20250;-92
2021/04/08 06:44:14;;;;;;;11.30;7.95;;;3.80;99.90;;;;;;4947360;29;20231;-86
2021/04/08 06:46:44;;;;;;;12.50;8.07;;;3.80;99.90;;;;;;4915015;29;20196;-84
2021/04/08 06:49:11;;;;;;;15.85;8.13;;;3.90;99.90;;;;;;4931493;29;20192;-84
2021/04/08 06:51:45;;;;;;;14.23;8.77;;;3.90;99.90;;;;;;4932597;29;20220;-82
2021/04/08 06:54:12;;;;;;;14.40;9.07;;;4.00;99.90;;;;;;4925828;29;20204;-86
2021/04/08 06:56:39;;;;;;;13.02;9.38;;;4.20;99.90;;;;;;4933947;29;20191;-83
2021/04/08 06:59:10;;;;;;;12.85;8.98;;;4.20;99.90;;;;;;4935827;29;20188;-83
2021/04/08 07:01:45;;;;;;;18.20;9.55;;;4.30;99.90;;;;;;4934011;29;20203;-83
2021/04/08 07:04:12;;;;;;;11.68;9.10;;;4.40;99.90;;;;;;4932751;29;20207;-83
2021/04/08 07:06:39;;;;;;;11.48;8.45;;;4.40;99.90;;;;;;4934699;29;20224;-80
2021/04/08 07:09:09;;;;;;;13.65;8.75;;;4.40;99.90;;;;;;4925551;29;20200;-82
2021/04/08 07:11:36;;;;;;;10.40;8.60;;;4.40;99.90;;;;;;4929650;29;20215;-84
2021/04/08 07:14:05;;;;;;;11.32;8.77;;;4.50;99.90;;;;;;4940166;29;20196;-84
2021/04/08 07:16:31;;;;;;;15.38;8.43;;;4.50;99.90;;;;;;4933110;29;20223;-84
2021/04/08 07:19:01;;;;;;;12.23;8.20;;;4.60;99.90;;;;;;4930694;29;20211;-84
2021/04/08 07:21:32;;;;;;;12.55;7.95;;;4.70;99.90;;;;;;4934528;29;20238;-83
2021/04/08 07:24:25;;;;;;;10.88;7.93;;;4.70;99.90;;;;;;4914442;29;20250;-83
2021/04/08 07:27:05;;;;;;;13.98;7.30;;;4.70;99.90;;;;;;4917094;29;20204;-81
2021/04/08 07:29:40;;;;;;;12.13;7.28;;;4.80;99.90;;;;;;4941731;29;20187;-81
2021/04/08 07:32:11;;;;;;;9.80;7.55;;;4.80;99.90;;;;;;4925185;29;20243;-81
2021/04/08 07:34:43;;;;;;;10.95;8.20;;;4.80;99.90;;;;;;4936491;29;20670;-82
2021/04/08 07:37:12;;;;;;;9.98;5.90;;;4.90;99.90;;;;;;4934764;29;20631;-80
2021/04/08 07:39:43;;;;;;;7.40;6.35;;;5.00;99.90;;;;;;4936342;29;20193;-82
2021/04/08 07:42:23;;;;;;;10.20;7.22;;;5.00;99.90;;;;;;4937075;29;20199;-80
2021/04/08 07:44:55;;;;;;;9.43;6.30;;;5.00;99.90;;;;;;4942386;29;20195;-80
2021/04/08 07:47:32;;;;;;;14.07;7.93;;;5.00;99.90;;;;;;4905272;29;20523;-80
2021/04/08 07:50:04;;;;;;;14.07;7.35;;;4.90;99.90;;;;;;4934727;29;20193;-80
2021/04/08 07:52:35;;;;;;;8.40;6.57;;;5.10;99.90;;;;;;4943846;29;20226;-81
2021/04/08 07:55:13;;;;;;;11.30;6.93;;;5.10;99.90;;;;;;4935720;29;20194;-81
2021/04/08 07:57:51;;;;;;;12.18;7.93;;;5.20;99.90;;;;;;4939787;29;20967;-80
2021/04/08 08:00:19;;;;;;;10.48;6.15;;;5.20;99.90;;;;;;4931881;29;20271;-81
2021/04/08 08:02:49;;;;;;;13.55;7.20;;;5.30;99.90;;;;;;4935089;29;20185;-81
2021/04/08 08:05:41;;;;;;;6.57;5.97;;;5.30;99.90;;;;;;4918236;29;20195;-80
2021/04/08 08:08:09;;;;;;;9.07;6.80;;;5.50;99.90;;;;;;4938253;29;20192;-81
2021/04/08 08:10:38;;;;;;;11.02;6.78;;;5.60;99.90;;;;;;4937924;29;20543;-81
2021/04/08 08:13:06;;;;;;;7.03;5.72;;;5.70;99.90;;;;;;4935664;29;20240;-83
2021/04/08 08:15:32;;;;;;;13.20;7.47;;;5.70;99.90;;;;;;4938141;29;20256;-82
2021/04/08 08:17:58;;;;;;;12.23;6.65;;;5.70;99.90;;;;;;4905683;29;20539;-82
2021/04/08 08:20:26;;;;;;;7.45;6.68;;;5.70;99.90;;;;;;4938138;29;20188;-81
2021/04/08 08:22:53;;;;;;;10.35;6.15;;;5.80;99.90;;;;;;4937636;29;20254;-83
2021/04/08 08:25:26;;;;;;;8.38;6.70;;;5.70;99.90;;;;;;4937439;29;20645;-82
2021/04/08 08:27:56;;;;;;;12.50;7.38;;;5.80;99.90;;;;;;4915838;29;20204;-83
2021/04/08 08:30:54;;;;;;;8.00;7.20;;;6.00;99.90;;;;;;4914315;29;20619;-82
2021/04/08 08:33:25;;;;;;;7.88;7.03;;;6.20;99.90;;;;;;4943378;29;20243;-83
2021/04/08 08:35:53;;;;;;;10.10;6.82;;;6.20;99.90;;;;;;4921596;29;20211;-81
2021/04/08 08:38:24;;;;;;;7.82;7.13;;;6.30;99.90;;;;;;4932646;29;20211;-82
2021/04/08 08:40:50;;;;;;;10.27;7.75;;;6.40;98.50;;;;;;4942336;29;20196;-83
2021/04/08 08:43:19;;;;;;;9.20;7.05;;;6.30;99.30;;;;;;4937401;29;20200;-85
2021/04/08 08:45:48;;;;;;;10.02;6.03;;;6.40;99.60;;;;;;4936365;29;20575;-81
2021/04/08 08:48:18;;;;;;;9.95;6.40;;;6.50;98.90;;;;;;4936915;29;20182;-81
2021/04/08 08:50:45;;;;;;;7.65;5.70;;;6.60;99.50;;;;;;4934075;29;20287;-81
2021/04/08 08:53:13;;;;;;;6.78;6.18;;;6.70;97.20;;;;;;4935981;29;20231;-84
2021/04/08 08:55:40;;;;;;;6.63;6.03;;;6.80;97.20;;;;;;4937275;29;20193;-82
2021/04/08 08:58:11;;;;;;;8.45;6.72;;;6.90;96.90;;;;;;4922202;29;20192;-83
2021/04/08 09:00:42;;;;;;;7.70;7.10;;;7.00;96.40;;;;;;4937160;29;20201;-83
2021/04/08 09:03:30;;;;;;;8.60;7.65;;;7.20;95.60;;;;;;4934554;29;20205;-83
2021/04/08 09:05:59;;;;;;;7.70;6.85;;;7.20;96.30;;;;;;4928826;29;20200;-82
2021/04/08 09:08:50;;;;;;;7.53;6.82;;;7.30;95.40;;;;;;4912207;29;20696;-81
2021/04/08 09:11:32;;;;;;;6.85;6.30;;;7.40;94.00;;;;;;4935242;29;20306;-81
2021/04/08 09:13:59;;;;;;;5.90;5.35;;;7.30;90.60;;;;;;4937588;29;20524;-80
2021/04/08 09:16:41;;;;;;;8.80;5.75;;;7.10;90.10;;;;;;4937511;29;20243;-82
2021/04/08 09:19:10;;;;;;;7.03;6.43;;;7.20;91.30;;;;;;4934562;29;20284;-85
2021/04/08 09:21:49;;;;;;;7.25;6.55;;;7.30;91.70;;;;;;4937582;29;20642;-84
2021/04/08 09:24:20;;;;;;;6.88;6.10;;;7.40;93.00;;;;;;4936946;29;20288;-83
2021/04/08 09:26:58;;;;;;;5.60;5.00;;;7.60;91.90;;;;;;4914503;29;20536;-83
2021/04/08 09:29:51;;;;;;;7.82;7.15;;;7.90;92.10;;;;;;4936418;29;20488;-80
2021/04/08 09:32:29;;;;;;;8.05;7.32;;;8.20;90.40;;;;;;4935222;29;20245;-80
2021/04/08 09:35:28;;;;;;;7.20;6.50;;;8.30;86.70;;;;;;4933539;29;20205;-81
2021/04/08 09:38:18;;;;;;;7.43;6.73;;;8.60;85.40;;;;;;4935329;29;20512;-79
2021/04/08 09:40:47;;;;;;;8.93;7.90;;;8.80;80.80;;;;;;4924431;29;20429;-80
2021/04/08 09:43:24;;;;;;;12.23;8.60;;;8.90;82.50;;;;;;4936333;29;20985;-80
2021/04/08 09:45:52;;;;;;;7.17;6.47;;;9.10;78.40;;;;;;4934460;29;20452;-80
2021/04/08 09:48:52;;;;;;;8.70;6.43;;;9.50;81.10;;;;;;4935376;29;20483;-81
2021/04/08 09:51:27;;;;;;;8.73;7.80;;;9.70;74.30;;;;;;4935339;29;20479;-82
2021/04/08 09:53:53;;;;;;;7.20;6.50;;;9.60;71.60;;;;;;4929700;29;20501;-82
2021/04/08 09:56:42;;;;;;;8.07;7.27;;;9.40;69.60;;;;;;4936163;29;20879;-82
2021/04/08 09:59:08;;;;;;;7.80;7.17;;;9.10;69.30;;;;;;4919505;29;20423;-83
2021/04/08 10:01:37;;;;;;;6.67;6.30;;;8.80;70.50;;;;;;4931771;29;20473;-82
2021/04/08 10:04:23;;;;;;;8.00;7.40;;;8.50;67.20;;;;;;4927854;29;20458;-81
2021/04/08 10:07:06;;;;;;;6.93;6.20;;;8.40;68.40;;;;;;4934694;29;20470;-81
2021/04/08 10:09:33;;;;;;;9.90;7.10;;;8.30;67.00;;;;;;4934153;29;20252;-81
2021/04/08 10:11:59;;;;;;;5.97;5.40;;;8.30;69.70;;;;;;4935842;29;20819;-82
2021/04/08 10:14:31;;;;;;;6.73;6.23;;;8.40;71.90;;;;;;4919768;29;20424;-81
2021/04/08 10:17:08;;;;;;;7.28;6.68;;;8.20;64.70;;;;;;4939914;29;20499;-82
2021/04/08 10:19:37;;;;;;;7.00;6.50;;;8.30;65.00;;;;;;4936489;29;20196;-81
2021/04/08 10:22:04;;;;;;;6.13;5.73;;;8.30;66.90;;;;;;4930361;29;20920;-80
2021/04/08 10:24:44;;;;;;;7.47;6.87;;;8.30;68.30;;;;;;4936188;29;20465;-80
2021/04/08 10:27:12;;;;;;;8.23;7.43;;;8.20;66.20;;;;;;4912269;29;20903;-81
2021/04/08 10:29:39;;;;;;;6.77;6.37;;;8.20;66.80;;;;;;4935380;29;20485;-81
2021/04/08 10:32:05;;;;;;;7.30;6.60;;;8.30;64.80;;;;;;4933470;29;20564;-81
2021/04/08 10:34:40;;;;;;;6.63;5.83;;;8.30;67.80;;;;;;4940215;29;20422;-81
2021/04/08 10:37:08;;;;;;;7.37;6.73;;;8.40;66.90;;;;;;4932358;29;20527;-81
2021/04/08 10:39:36;;;;;;;7.20;6.47;;;8.50;65.90;;;;;;4935732;29;20451;-80
2021/04/08 10:42:10;;;;;;;8.13;7.33;;;8.60;66.20;;;;;;4935581;29;20451;-81
2021/04/08 10:44:40;;;;;;;7.73;7.13;;;8.50;62.90;;;;;;4935209;29;20442;-81
2021/04/08 10:47:06;;;;;;;7.10;6.50;;;8.60;67.20;;;;;;4934332;29;20447;-82
2021/04/08 10:49:36;;;;;;;14.13;6.70;;;8.70;65.80;;;;;;4931284;29;20499;-80
2021/04/08 10:52:08;;;;;;;7.27;6.77;;;8.90;62.30;;;;;;4935747;29;20458;-80
2021/04/08 10:54:39;;;;;;;7.50;6.90;;;9.10;60.30;;;;;;4935288;29;20458;-81
2021/04/08 10:57:08;;;;;;;7.77;7.10;;;9.30;62.10;;;;;;4934080;29;20473;-80
2021/04/08 10:59:39;;;;;;;8.83;8.13;;;9.20;58.60;;;;;;4935601;29;20441;-81
2021/04/08 11:02:39;;;;;;;8.70;8.00;;;9.10;60.30;;;;;;4930080;29;20434;-84
2021/04/08 11:05:20;;;;;;;8.60;7.70;;;9.00;64.00;;;;;;4924732;29;20841;-83
2021/04/08 11:07:48;;;;;;;7.13;6.63;;;8.90;61.50;;;;;;4918663;29;20870;-80
2021/04/08 11:10:20;;;;;;;9.40;7.30;;;8.80;63.70;;;;;;4935168;29;20429;-79
2021/04/08 11:12:51;;;;;;;6.85;6.40;;;8.70;59.40;;;;;;4934933;29;20484;-79
2021/04/08 11:15:21;;;;;;;8.23;7.63;;;8.50;62.10;;;;;;4934783;29;20202;-79
2021/04/08 11:17:50;;;;;;;8.90;8.10;;;8.60;61.20;;;;;;4931646;29;20810;-79
2021/04/08 11:20:24;;;;;;;8.40;7.70;;;8.60;61.70;;;;;;4934972;29;20444;-79
2021/04/08 11:22:50;;;;;;;7.63;7.03;;;8.60;59.70;;;;;;4938573;29;20491;-80
2021/04/08 11:25:17;;;;;;;6.93;6.32;;;8.50;60.40;;;;;;4934868;29;20426;-80
2021/04/08 11:27:44;;;;;;;8.40;7.60;;;8.60;61.40;;;;;;4933407;29;20213;-79
2021/04/08 11:30:28;;;;;;;8.90;8.00;;;8.70;65.20;;;;;;4933459;29;21139;-80
2021/04/08 11:32:56;;;;;;;8.50;7.70;;;8.80;63.00;;;;;;4931485;29;20490;-79
2021/04/08 11:35:29;;;;;;;8.10;7.03;;;9.00;60.70;;;;;;4931300;29;20521;-79
2021/04/08 11:38:07;;;;;;;8.63;8.03;;;9.50;59.20;;;;;;4934424;29;20441;-79
2021/04/08 11:40:34;;;;;;;8.10;7.33;;;9.80;57.40;;;;;;4933494;29;20498;-79
2021/04/08 11:43:16;;;;;;;8.10;7.50;;;10.00;57.50;;;;;;4931499;29;20430;-78
2021/04/08 11:45:45;;;;;;;9.07;8.17;;;10.30;59.30;;;;;;4932558;29;20518;-79
2021/04/08 11:48:11;;;;;;;9.27;8.40;;;10.60;55.30;;;;;;4934096;29;20436;-79
2021/04/08 11:50:45;;;;;;;8.50;7.90;;;10.50;56.30;;;;;;4917224;29;20454;-79
2021/04/08 11:53:31;;;;;;;9.77;7.90;;;10.30;54.10;;;;;;4932333;29;20810;-79
2021/04/08 11:55:57;;;;;;;9.47;8.47;;;10.10;54.30;;;;;;4934401;29;20430;-80
2021/04/08 11:58:31;;;;;;;7.80;7.30;;;10.00;56.20;;;;;;4916107;29;20590;-80
2021/04/08 12:01:13;;;;;;;8.93;8.00;;;9.70;55.70;;;;;;4920228;29;20440;-80
2021/04/08 12:03:44;;;;;;;8.27;7.63;;;9.80;59.60;;;;;;4934135;29;20434;-84
2021/04/08 12:06:16;;;;;;;9.00;8.20;;;9.80;58.30;;;;;;4917634;29;20424;-81
2021/04/08 12:08:44;;;;;;;8.50;7.70;;;10.00;58.00;;;;;;4934487;29;20438;-82
2021/04/08 12:11:12;;;;;;;8.90;8.27;;;9.90;56.00;;;;;;4917618;29;20999;-80
2021/04/08 12:13:38;;;;;;;9.27;8.63;;;9.70;56.20;;;;;;4934131;29;20529;-80
2021/04/08 12:16:06;;;;;;;7.60;7.00;;;9.60;56.50;;;;;;4934071;29;20445;-83
2021/04/08 12:18:35;;;;;;;10.53;8.70;;;9.50;57.30;;;;;;4933499;29;20443;-82
2021/04/08 12:21:12;;;;;;;8.87;8.23;;;9.40;57.00;;;;;;4934633;29;20426;-79
2021/04/08 12:23:39;;;;;;;9.10;8.30;;;9.20;57.60;;;;;;4934135;29;20478;-79
2021/04/08 12:26:06;;;;;;;9.13;8.47;;;9.20;57.10;;;;;;4936740;29;20432;-79
2021/04/08 12:28:34;;;;;;;10.60;9.80;;;9.20;57.30;;;;;;4937235;29;20431;-80
2021/04/08 12:31:03;;;;;;;8.87;8.17;;;9.20;59.10;;;;;;4933835;29;20430;-80
2021/04/08 12:33:34;;;;;;;9.93;9.00;;;9.20;59.00;;;;;;4931781;29;20429;-80
2021/04/08 12:36:05;;;;;;;10.23;9.33;;;9.50;59.90;;;;;;4938277;29;20442;-80
2021/04/08 12:38:34;;;;;;;8.37;7.67;;;9.80;59.80;;;;;;4930622;29;20434;-80
2021/04/08 12:41:00;;;;;;;9.10;7.93;;;10.30;57.60;;;;;;4936839;29;20439;-80
2021/04/08 12:43:30;;;;;;;9.80;9.20;;;10.60;54.10;;;;;;4937106;29;20467;-80
2021/04/08 12:45:57;;;;;;;8.83;8.10;;;10.40;54.20;;;;;;4935229;29;20428;-80
2021/04/08 12:48:23;;;;;;;10.10;9.20;;;10.50;53.90;;;;;;4936731;29;20522;-80
2021/04/08 12:50:53;;;;;;;10.67;9.47;;;10.30;55.00;;;;;;4931935;29;20471;-80
2021/04/08 12:53:21;;;;;;;9.70;8.70;;;10.20;53.80;;;;;;4939412;29;20447;-81
2021/04/08 12:55:54;;;;;;;10.97;10.00;;;10.20;55.10;;;;;;4921359;29;20439;-82
2021/04/08 12:58:22;;;;;;;10.83;9.43;;;10.20;56.00;;;;;;4934601;29;20438;-80
2021/04/08 13:00:51;;;;;;;10.83;9.70;;;10.30;56.20;;;;;;4931961;29;20443;-80
2021/04/08 13:03:19;;;;;;;9.43;8.73;;;10.60;55.60;;;;;;4937540;29;20557;-81
2021/04/08 13:05:46;;;;;;;10.10;9.20;;;10.70;55.10;;;;;;4937468;29;20574;-80
2021/04/08 13:08:12;;;;;;;10.00;9.07;;;11.00;54.10;;;;;;4937187;29;20447;-80
2021/04/08 13:10:41;;;;;;;9.07;8.47;;;11.20;51.60;;;;;;4928033;29;21013;-82
2021/04/08 13:13:12;;;;;;;9.40;8.70;;;11.50;52.30;;;;;;4903719;29;20538;-80
2021/04/08 13:15:39;;;;;;;10.80;9.93;;;11.70;51.20;;;;;;4927164;29;20447;-80